Time;durP1;ratioP1;P1;durP2;ratioP2;P2;SDS_P1;SDS_P2;PMS_P1;PMS_P2;Temp;Humidity;BMP_temperature;BMP_pressure;BME280_temperature;BME280_humidity;BME280_pressure;Samples;Min_cycle;Max_cycle;Signal;HPM_P1;HPM_P2
2021/07/05 00:01:13;;;;;;;15.77;10.85;;;16.90;97.80;;;;;;5013998;28;20562;-49
2021/07/05 00:03:39;;;;;;;19.80;12.65;;;16.90;97.80;;;;;;5018086;28;20122;-48
2021/07/05 00:06:05;;;;;;;20.80;13.57;;;16.90;97.90;;;;;;5013196;28;20160;-48
2021/07/05 00:08:31;;;;;;;25.63;14.30;;;16.90;97.80;;;;;;5014077;28;20042;-50
2021/07/05 00:10:57;;;;;;;24.92;14.93;;;16.90;97.90;;;;;;5010662;28;20125;-49
2021/07/05 00:13:23;;;;;;;24.83;15.52;;;16.90;97.90;;;;;;5004373;28;20480;-49
2021/07/05 00:15:50;;;;;;;24.02;15.65;;;17.00;98.00;;;;;;5009006;28;20095;-48
2021/07/05 00:18:16;;;;;;;23.63;15.15;;;17.00;98.00;;;;;;5011348;28;20046;-50
2021/07/05 00:20:45;;;;;;;28.88;16.02;;;17.00;98.00;;;;;;5011482;28;20052;-49
2021/07/05 00:23:12;;;;;;;22.98;15.60;;;17.00;98.00;;;;;;5005638;28;20494;-49
2021/07/05 00:25:38;;;;;;;35.28;17.05;;;17.00;98.00;;;;;;5013462;28;20053;-49
2021/07/05 00:28:05;;;;;;;27.05;16.27;;;17.00;98.00;;;;;;5014185;28;20045;-51
2021/07/05 00:30:32;;;;;;;28.45;16.15;;;17.00;98.00;;;;;;5013969;28;20041;-51
2021/07/05 00:32:58;;;;;;;31.00;15.93;;;17.00;98.00;;;;;;5013494;28;20050;-49
2021/07/05 00:35:25;;;;;;;28.33;16.42;;;17.00;98.00;;;;;;5006953;28;20045;-50
2021/07/05 00:37:53;;;;;;;25.77;15.68;;;17.00;98.10;;;;;;5020092;28;20073;-50
2021/07/05 00:40:20;;;;;;;28.42;16.30;;;17.00;98.00;;;;;;5011077;28;20506;-49
2021/07/05 00:42:46;;;;;;;26.98;16.33;;;17.00;98.00;;;;;;5006887;28;20046;-50
2021/07/05 00:45:13;;;;;;;28.55;16.08;;;17.00;98.00;;;;;;5005354;28;20061;-50
2021/07/05 00:47:39;;;;;;;27.15;16.75;;;16.90;97.90;;;;;;5008665;28;20573;-50
2021/07/05 00:50:08;;;;;;;25.42;16.38;;;16.90;98.00;;;;;;5013336;28;20033;-51
2021/07/05 00:52:36;;;;;;;28.00;16.77;;;16.90;97.90;;;;;;5014342;28;20053;-51
2021/07/05 00:55:05;;;;;;;24.17;16.42;;;16.90;97.90;;;;;;5027062;28;20057;-50
2021/07/05 00:57:31;;;;;;;26.27;16.58;;;16.90;97.90;;;;;;5004784;28;20274;-50
2021/07/05 00:59:58;;;;;;;25.80;16.63;;;16.80;97.90;;;;;;5003880;28;20073;-50
2021/07/05 01:02:26;;;;;;;23.85;15.25;;;16.80;97.90;;;;;;5006490;28;20042;-49
2021/07/05 01:04:53;;;;;;;24.63;16.00;;;16.80;97.90;;;;;;5010763;28;20041;-48
2021/07/05 01:07:21;;;;;;;24.55;16.13;;;16.80;97.80;;;;;;4999744;28;20050;-50
2021/07/05 01:09:47;;;;;;;21.73;15.35;;;16.70;97.80;;;;;;5002944;28;20545;-49
2021/07/05 01:12:13;;;;;;;28.80;16.42;;;16.70;97.80;;;;;;5014090;28;20515;-49
2021/07/05 01:14:39;;;;;;;25.63;16.20;;;16.70;97.90;;;;;;5007307;28;20045;-50
2021/07/05 01:17:10;;;;;;;24.70;16.50;;;16.70;97.80;;;;;;5006030;28;20041;-50
2021/07/05 01:19:38;;;;;;;25.05;16.63;;;16.60;97.80;;;;;;5014167;28;20048;-49
2021/07/05 01:22:04;;;;;;;26.48;16.05;;;16.60;97.80;;;;;;5012047;28;20038;-48
2021/07/05 01:24:30;;;;;;;23.15;16.92;;;16.60;97.80;;;;;;5013616;28;20064;-49
2021/07/05 01:26:56;;;;;;;25.67;15.65;;;16.60;97.80;;;;;;5014151;28;20049;-49
2021/07/05 01:29:22;;;;;;;25.35;16.60;;;16.50;97.80;;;;;;5011245;28;20062;-49
2021/07/05 01:31:49;;;;;;;28.17;17.52;;;16.50;97.80;;;;;;5001206;28;20073;-51
2021/07/05 01:34:17;;;;;;;28.33;17.83;;;16.50;97.80;;;;;;5015709;28;20077;-49
2021/07/05 01:36:45;;;;;;;31.73;19.80;;;16.50;97.80;;;;;;4976229;28;20415;-49
2021/07/05 01:39:11;;;;;;;29.63;19.13;;;16.50;97.80;;;;;;5005435;28;20452;-49
2021/07/05 01:41:37;;;;;;;35.45;20.42;;;16.50;97.90;;;;;;5017472;28;20049;-49
2021/07/05 01:44:03;;;;;;;36.25;20.67;;;16.50;97.90;;;;;;5007247;28;20528;-51
2021/07/05 01:46:29;;;;;;;43.22;23.55;;;16.40;97.80;;;;;;5012357;28;20058;-47
2021/07/05 01:48:55;;;;;;;44.40;24.38;;;16.40;97.70;;;;;;4994570;28;20518;-49
2021/07/05 01:51:21;;;;;;;53.63;26.15;;;16.40;97.70;;;;;;5012372;28;20038;-51
2021/07/05 01:53:47;;;;;;;45.53;25.80;;;16.40;97.80;;;;;;5003447;28;20042;-48
2021/07/05 01:56:14;;;;;;;52.08;25.65;;;16.30;97.80;;;;;;5009654;28;20044;-48
2021/07/05 01:58:40;;;;;;;48.70;25.50;;;16.30;97.90;;;;;;5012561;28;20080;-49
2021/07/05 02:01:06;;;;;;;70.03;26.63;;;16.30;97.90;;;;;;5014318;28;20033;-49
2021/07/05 02:03:32;;;;;;;38.10;23.67;;;16.40;98.10;;;;;;5017946;28;20037;-51
2021/07/05 02:05:58;;;;;;;48.15;24.90;;;16.30;97.90;;;;;;5012673;28;20038;-51
2021/07/05 02:08:27;;;;;;;47.78;25.90;;;16.30;98.00;;;;;;5009406;28;20102;-49
2021/07/05 02:10:54;;;;;;;47.90;24.67;;;16.30;98.00;;;;;;5011314;28;20107;-49
2021/07/05 02:13:30;;;;;;;44.80;25.45;;;16.30;98.00;;;;;;5022982;28;20050;-49
2021/07/05 02:15:59;;;;;;;45.20;24.48;;;16.30;98.10;;;;;;5010848;28;20505;-48
2021/07/05 02:18:28;;;;;;;48.58;24.98;;;16.20;98.10;;;;;;5008212;28;20046;-49
2021/07/05 02:21:03;;;;;;;41.15;24.30;;;16.30;98.10;;;;;;5024333;28;20488;-47
2021/07/05 02:23:30;;;;;;;47.85;26.25;;;16.30;98.00;;;;;;5018902;28;20067;-50
2021/07/05 02:25:55;;;;;;;43.60;25.73;;;16.30;98.10;;;;;;5008910;28;20045;-47
2021/07/05 02:28:25;;;;;;;47.65;26.70;;;16.30;98.00;;;;;;5018155;28;20044;-46
2021/07/05 02:30:53;;;;;;;40.65;25.00;;;16.30;98.00;;;;;;4999278;28;20487;-47
2021/07/05 02:33:21;;;;;;;46.65;25.20;;;16.30;98.10;;;;;;5013080;28;20115;-47
2021/07/05 02:35:47;;;;;;;50.65;24.88;;;16.30;98.10;;;;;;5003701;28;20426;-47
2021/07/05 02:38:16;;;;;;;39.05;23.35;;;16.30;98.10;;;;;;5010308;28;20063;-47
2021/07/05 02:40:45;;;;;;;35.30;22.80;;;16.30;98.00;;;;;;5003951;28;20045;-48
2021/07/05 02:43:12;;;;;;;37.00;23.02;;;16.30;98.00;;;;;;4999111;28;20034;-47
2021/07/05 02:45:41;;;;;;;37.30;23.30;;;16.30;98.00;;;;;;5009705;28;20129;-46
2021/07/05 02:48:09;;;;;;;37.42;23.45;;;16.30;98.00;;;;;;5010523;28;20129;-47
2021/07/05 02:50:36;;;;;;;36.20;23.45;;;16.30;98.00;;;;;;5010029;28;20041;-47
2021/07/05 02:53:04;;;;;;;39.00;24.75;;;16.30;97.90;;;;;;5003432;28;20061;-47
2021/07/05 02:55:29;;;;;;;36.85;23.92;;;16.30;97.90;;;;;;5004423;28;20105;-50
2021/07/05 02:57:58;;;;;;;39.97;24.65;;;16.30;97.70;;;;;;5011020;28;20066;-49
2021/07/05 03:00:27;;;;;;;43.20;26.08;;;16.30;97.50;;;;;;5006968;28;20042;-49
2021/07/05 03:02:56;;;;;;;41.55;26.05;;;16.20;97.60;;;;;;5007959;28;20096;-50
2021/07/05 03:05:25;;;;;;;40.28;26.02;;;16.30;97.30;;;;;;4999678;28;20045;-48
2021/07/05 03:07:51;;;;;;;43.25;27.73;;;16.20;97.40;;;;;;5004099;28;20041;-47
2021/07/05 03:10:20;;;;;;;44.22;28.48;;;16.10;97.60;;;;;;5010915;28;20407;-47
2021/07/05 03:12:46;;;;;;;42.45;28.52;;;16.10;97.70;;;;;;5010645;28;20451;-47
2021/07/05 03:15:13;;;;;;;48.28;30.15;;;16.10;97.70;;;;;;5005613;28;20423;-47
2021/07/05 03:17:39;;;;;;;46.83;29.20;;;16.10;97.70;;;;;;5017885;28;20414;-51
2021/07/05 03:20:11;;;;;;;45.53;28.55;;;16.10;97.60;;;;;;5019709;28;20034;-48
2021/07/05 03:22:37;;;;;;;46.15;31.13;;;16.10;97.60;;;;;;5008469;28;20054;-48
2021/07/05 03:25:09;;;;;;;49.75;30.38;;;16.00;97.80;;;;;;5005031;28;20561;-50
2021/07/05 03:27:35;;;;;;;46.28;28.73;;;16.00;97.90;;;;;;5010895;28;20117;-50
2021/07/05 03:30:06;;;;;;;52.53;30.90;;;16.00;97.90;;;;;;5010514;28;20038;-51
2021/07/05 03:32:33;;;;;;;58.03;31.17;;;16.00;97.90;;;;;;5010591;28;20046;-48
2021/07/05 03:34:58;;;;;;;48.65;30.83;;;16.00;98.00;;;;;;4985214;28;20046;-47
2021/07/05 03:37:24;;;;;;;51.20;30.65;;;16.10;97.80;;;;;;5008418;28;20044;-48
2021/07/05 03:39:50;;;;;;;46.03;30.30;;;16.10;97.90;;;;;;5013306;28;20045;-47
2021/07/05 03:42:16;;;;;;;48.33;30.73;;;16.10;97.80;;;;;;5005466;28;20087;-47
2021/07/05 03:44:42;;;;;;;49.30;31.73;;;16.00;97.80;;;;;;4996060;28;20541;-51
2021/07/05 03:47:08;;;;;;;47.38;29.73;;;16.00;97.90;;;;;;5006139;28;20054;-48
2021/07/05 03:49:34;;;;;;;50.13;29.92;;;16.10;98.00;;;;;;5014446;28;20102;-46
2021/07/05 03:52:00;;;;;;;51.88;30.40;;;16.10;97.80;;;;;;5013930;28;20513;-48
2021/07/05 03:54:26;;;;;;;51.85;31.23;;;16.00;98.00;;;;;;5004834;28;20049;-51
2021/07/05 03:56:52;;;;;;;50.40;29.92;;;16.10;98.00;;;;;;5004466;28;20114;-48
2021/07/05 03:59:17;;;;;;;47.53;30.25;;;16.00;98.10;;;;;;5005355;28;20062;-49
2021/07/05 04:01:43;;;;;;;45.35;29.00;;;16.10;98.10;;;;;;5006362;28;20091;-47
2021/07/05 04:04:09;;;;;;;41.92;27.85;;;16.10;98.00;;;;;;5012826;28;20034;-48
2021/07/05 04:06:34;;;;;;;48.03;29.48;;;16.10;97.90;;;;;;5014040;28;20048;-48
2021/07/05 04:09:03;;;;;;;44.60;28.33;;;16.00;97.90;;;;;;5014685;28;20112;-49
2021/07/05 04:11:30;;;;;;;42.65;28.27;;;16.10;98.00;;;;;;5007768;28;20448;-50
2021/07/05 04:13:55;;;;;;;42.28;27.88;;;16.00;98.00;;;;;;5010729;28;20041;-47
2021/07/05 04:16:21;;;;;;;43.30;28.00;;;16.10;98.00;;;;;;5013603;28;20596;-50
2021/07/05 04:18:48;;;;;;;43.40;29.13;;;16.10;98.00;;;;;;5005395;28;20046;-47
2021/07/05 04:21:16;;;;;;;42.10;27.92;;;16.10;97.90;;;;;;5014448;28;20046;-51
2021/07/05 04:23:41;;;;;;;40.88;26.38;;;16.10;97.90;;;;;;5013088;28;20398;-49
2021/07/05 04:26:07;;;;;;;40.92;26.58;;;16.10;97.90;;;;;;5012608;28;20520;-48
2021/07/05 04:28:33;;;;;;;38.42;25.33;;;16.10;97.90;;;;;;5024531;28;20068;-50
2021/07/05 04:30:59;;;;;;;35.50;24.38;;;16.10;98.00;;;;;;5019874;28;20037;-50
2021/07/05 04:33:25;;;;;;;35.72;22.77;;;16.10;97.90;;;;;;5024691;28;20088;-48
2021/07/05 04:35:51;;;;;;;33.83;23.58;;;16.10;97.90;;;;;;4986282;28;20046;-49
2021/07/05 04:38:16;;;;;;;38.42;24.52;;;16.10;97.80;;;;;;5008334;28;20498;-51
2021/07/05 04:40:43;;;;;;;33.65;22.73;;;16.10;97.90;;;;;;5004299;28;20073;-48
2021/07/05 04:43:10;;;;;;;32.05;23.00;;;16.10;97.90;;;;;;5005224;28;20054;-50
2021/07/05 04:45:37;;;;;;;31.75;21.45;;;16.10;97.90;;;;;;5012339;28;20049;-47
2021/07/05 04:48:05;;;;;;;33.53;20.95;;;16.10;98.00;;;;;;5013196;28;20080;-50
2021/07/05 04:50:31;;;;;;;29.50;20.13;;;16.10;98.00;;;;;;5013801;28;20380;-51
2021/07/05 04:52:58;;;;;;;31.13;20.52;;;16.10;98.00;;;;;;5014180;28;20519;-50
2021/07/05 04:55:24;;;;;;;33.58;21.10;;;16.10;98.10;;;;;;5012484;28;20038;-50
2021/07/05 04:57:52;;;;;;;24.83;19.83;;;16.10;98.10;;;;;;5011628;28;20159;-50
2021/07/05 05:00:33;;;;;;;28.08;20.00;;;16.10;98.10;;;;;;5004901;28;20048;-50
2021/07/05 05:03:01;;;;;;;30.05;20.52;;;16.10;98.10;;;;;;5013310;28;20041;-51
2021/07/05 05:05:28;;;;;;;26.60;19.35;;;16.20;98.20;;;;;;5012425;28;20072;-49
2021/07/05 05:07:53;;;;;;;27.25;18.67;;;16.20;98.20;;;;;;5012574;28;20096;-49
2021/07/05 05:10:20;;;;;;;28.17;19.10;;;16.20;98.10;;;;;;5011962;28;20483;-49
2021/07/05 05:12:47;;;;;;;28.75;19.83;;;16.20;98.10;;;;;;5001458;28;20404;-52
2021/07/05 05:15:13;;;;;;;24.88;18.60;;;16.20;98.00;;;;;;5013112;28;20037;-50
2021/07/05 05:17:39;;;;;;;23.20;17.88;;;16.20;98.00;;;;;;5012565;28;20042;-48
2021/07/05 05:20:08;;;;;;;23.23;18.48;;;16.20;98.00;;;;;;4996052;28;20487;-50
2021/07/05 05:22:35;;;;;;;27.17;18.98;;;16.20;98.00;;;;;;5010597;28;20046;-50
2021/07/05 05:25:01;;;;;;;23.88;18.30;;;16.20;98.00;;;;;;4993525;28;20038;-49
2021/07/05 05:27:27;;;;;;;25.55;19.33;;;16.20;98.00;;;;;;5013423;28;20041;-52
2021/07/05 05:29:52;;;;;;;24.77;18.83;;;16.20;98.00;;;;;;5011187;28;20049;-49
2021/07/05 05:32:18;;;;;;;28.25;19.67;;;16.20;98.10;;;;;;5015937;28;20045;-50
2021/07/05 05:34:44;;;;;;;29.60;19.55;;;16.20;98.30;;;;;;5007060;28;20062;-53
2021/07/05 05:37:13;;;;;;;27.27;19.40;;;16.20;98.10;;;;;;5014272;28;20080;-52
2021/07/05 05:39:39;;;;;;;24.30;17.90;;;16.20;98.20;;;;;;5014642;28;20084;-50
2021/07/05 05:42:05;;;;;;;25.60;18.70;;;16.20;98.20;;;;;;5018703;28;20038;-47
2021/07/05 05:44:31;;;;;;;25.48;18.17;;;16.20;98.10;;;;;;5010966;28;20057;-49
2021/07/05 05:46:58;;;;;;;25.42;17.90;;;16.20;98.10;;;;;;5005092;28;20050;-50
2021/07/05 05:49:24;;;;;;;20.70;15.68;;;16.20;98.00;;;;;;5014990;28;20045;-49
2021/07/05 05:51:50;;;;;;;23.80;16.85;;;16.20;97.70;;;;;;5011265;28;20430;-49
2021/07/05 05:54:16;;;;;;;21.13;15.93;;;16.20;97.60;;;;;;5022141;28;20052;-53
2021/07/05 05:56:42;;;;;;;23.48;15.77;;;16.10;97.50;;;;;;5011130;28;20046;-48
2021/07/05 05:59:10;;;;;;;22.08;16.38;;;16.10;97.40;;;;;;5013813;28;20037;-51
2021/07/05 06:01:40;;;;;;;21.90;13.07;;;16.10;97.30;;;;;;5013566;28;20522;-50
2021/07/05 06:04:11;;;;;;;19.67;11.60;;;16.10;97.20;;;;;;5023056;28;20049;-51
2021/07/05 06:06:38;;;;;;;18.35;11.93;;;16.00;96.50;;;;;;5009212;28;20455;-53
2021/07/05 06:09:05;;;;;;;17.33;11.75;;;16.00;96.60;;;;;;5009655;28;20065;-52
2021/07/05 06:11:31;;;;;;;14.25;10.20;;;15.90;96.70;;;;;;5014230;28;20037;-54
2021/07/05 06:13:57;;;;;;;14.95;10.73;;;15.80;96.50;;;;;;5012882;28;20132;-50
2021/07/05 06:16:24;;;;;;;17.23;10.80;;;15.80;96.70;;;;;;5005789;28;20042;-50
2021/07/05 06:18:50;;;;;;;20.85;10.27;;;15.70;96.90;;;;;;5010549;28;20488;-51
2021/07/05 06:21:19;;;;;;;9.38;6.10;;;15.70;97.10;;;;;;5013966;28;20046;-53
2021/07/05 06:23:45;;;;;;;10.07;4.90;;;15.60;97.10;;;;;;5010127;28;20046;-50
2021/07/05 06:26:15;;;;;;;8.30;5.25;;;15.50;96.80;;;;;;5013014;28;20438;-53
2021/07/05 06:28:40;;;;;;;9.05;5.57;;;15.40;96.70;;;;;;5011505;28;20056;-50
2021/07/05 06:31:06;;;;;;;7.80;4.45;;;15.30;96.90;;;;;;5013610;28;20057;-52
2021/07/05 06:33:33;;;;;;;7.05;3.70;;;15.30;97.00;;;;;;5019055;28;20128;-51
2021/07/05 06:35:59;;;;;;;4.53;2.75;;;15.20;97.00;;;;;;4995256;28;20536;-51
2021/07/05 06:38:26;;;;;;;5.60;2.47;;;15.10;96.50;;;;;;5016875;28;20141;-47
2021/07/05 06:40:52;;;;;;;4.68;2.20;;;15.10;96.40;;;;;;5011778;28;20033;-51
2021/07/05 06:43:19;;;;;;;7.60;2.08;;;15.00;96.40;;;;;;4991653;28;20456;-48
2021/07/05 06:45:46;;;;;;;3.58;2.22;;;15.00;96.50;;;;;;5008992;28;20044;-50
2021/07/05 06:48:12;;;;;;;5.60;2.85;;;14.90;96.50;;;;;;5003502;28;20457;-52
2021/07/05 06:50:38;;;;;;;5.50;3.08;;;14.80;96.50;;;;;;5018961;28;20068;-50
2021/07/05 06:53:06;;;;;;;5.07;2.75;;;14.80;96.60;;;;;;5019787;28;20034;-51
2021/07/05 06:55:33;;;;;;;5.90;3.17;;;14.80;96.70;;;;;;5005897;28;20471;-51
2021/07/05 06:57:59;;;;;;;5.63;3.33;;;14.80;96.90;;;;;;5021060;28;20038;-55
2021/07/05 07:00:28;;;;;;;6.05;3.13;;;14.80;97.00;;;;;;4991109;28;20084;-50
2021/07/05 07:02:56;;;;;;;4.63;3.05;;;14.80;97.10;;;;;;5021308;28;20518;-51
2021/07/05 07:05:24;;;;;;;6.63;2.92;;;14.90;97.10;;;;;;5020290;28;20403;-52
2021/07/05 07:07:54;;;;;;;5.93;3.03;;;14.80;97.10;;;;;;5024099;28;20042;-53
2021/07/05 07:10:20;;;;;;;4.70;2.50;;;14.80;97.20;;;;;;5021709;28;20087;-49
2021/07/05 07:12:49;;;;;;;4.47;2.28;;;14.80;97.20;;;;;;5013999;28;20049;-52
2021/07/05 07:15:21;;;;;;;5.05;2.20;;;14.80;97.10;;;;;;5020985;28;20046;-48
2021/07/05 07:17:55;;;;;;;6.30;2.33;;;14.80;97.00;;;;;;5014791;28;20037;-51
2021/07/05 07:20:20;;;;;;;5.45;3.08;;;14.80;96.90;;;;;;5021619;28;20088;-50
2021/07/05 07:22:46;;;;;;;5.88;2.42;;;14.80;97.00;;;;;;5013739;28;20045;-49
2021/07/05 07:25:15;;;;;;;4.65;2.55;;;14.80;97.00;;;;;;4994684;28;20069;-52
2021/07/05 07:27:41;;;;;;;7.80;2.90;;;14.80;96.90;;;;;;5010966;28;20137;-51
2021/07/05 07:30:08;;;;;;;3.63;2.70;;;14.90;96.90;;;;;;5019022;28;20128;-51
2021/07/05 07:32:34;;;;;;;5.85;3.05;;;14.90;96.80;;;;;;5016743;28;20503;-51
2021/07/05 07:35:00;;;;;;;3.63;2.75;;;14.90;96.90;;;;;;5015234;28;20037;-49
2021/07/05 07:37:26;;;;;;;5.82;3.40;;;14.90;97.00;;;;;;5017896;28;20096;-50
2021/07/05 07:40:01;;;;;;;4.82;3.20;;;15.00;97.10;;;;;;5012298;28;20040;-48
2021/07/05 07:42:26;;;;;;;6.22;3.13;;;15.00;97.10;;;;;;5022785;28;20481;-51
2021/07/05 07:44:52;;;;;;;6.57;3.58;;;15.10;97.20;;;;;;5025233;28;20053;-49
2021/07/05 07:47:19;;;;;;;7.50;3.80;;;15.10;97.20;;;;;;5010975;28;20069;-51
2021/07/05 07:49:46;;;;;;;7.53;3.40;;;15.20;97.20;;;;;;5013984;28;20186;-50
2021/07/05 07:52:12;;;;;;;9.35;3.80;;;15.20;97.20;;;;;;5002194;28;20128;-51
2021/07/05 07:54:38;;;;;;;6.65;3.75;;;15.30;97.10;;;;;;5016352;28;20474;-50
2021/07/05 07:57:04;;;;;;;9.55;4.40;;;15.30;97.00;;;;;;5015479;28;20037;-50
2021/07/05 07:59:30;;;;;;;9.15;4.15;;;15.40;97.00;;;;;;5018085;28;20034;-52
2021/07/05 08:01:56;;;;;;;12.02;4.75;;;15.50;97.20;;;;;;5007390;28;20144;-52
2021/07/05 08:04:23;;;;;;;8.25;4.70;;;15.50;97.10;;;;;;5000701;28;20045;-52
2021/07/05 08:06:53;;;;;;;9.02;4.72;;;15.60;97.20;;;;;;4967044;28;20129;-49
2021/07/05 08:09:19;;;;;;;9.60;5.57;;;15.60;96.90;;;;;;5015344;28;20074;-50
2021/07/05 08:11:45;;;;;;;9.25;5.38;;;15.60;96.90;;;;;;5009132;28;20088;-51
2021/07/05 08:14:10;;;;;;;8.02;5.28;;;15.70;96.90;;;;;;5008993;28;20053;-51
2021/07/05 08:16:36;;;;;;;9.35;5.95;;;15.80;97.00;;;;;;5010661;28;20038;-51
2021/07/05 08:19:02;;;;;;;13.00;7.35;;;15.90;96.90;;;;;;4992697;28;20045;-51
2021/07/05 08:21:28;;;;;;;13.15;6.88;;;15.90;97.00;;;;;;4988609;28;20046;-50
2021/07/05 08:23:55;;;;;;;11.32;6.80;;;16.00;97.00;;;;;;5007672;28;20038;-47
2021/07/05 08:26:21;;;;;;;12.85;7.45;;;16.00;96.90;;;;;;5011542;28;20109;-48
2021/07/05 08:28:47;;;;;;;15.18;7.60;;;16.00;96.60;;;;;;4996478;28;20453;-48
2021/07/05 08:31:14;;;;;;;12.73;7.88;;;16.10;96.40;;;;;;5004359;28;20069;-48
2021/07/05 08:33:42;;;;;;;14.30;8.15;;;16.00;96.20;;;;;;4998173;28;20049;-47
2021/07/05 08:36:07;;;;;;;16.55;9.40;;;16.00;96.10;;;;;;5013222;28;20491;-49
2021/07/05 08:38:34;;;;;;;12.35;8.52;;;16.00;96.20;;;;;;5013348;28;20082;-50
2021/07/05 08:41:02;;;;;;;13.40;8.38;;;16.00;96.00;;;;;;5015590;28;20930;-50
2021/07/05 08:43:29;;;;;;;15.73;9.10;;;15.90;95.80;;;;;;5012735;28;20111;-46
2021/07/05 08:46:01;;;;;;;17.13;8.73;;;15.90;96.10;;;;;;5011819;28;20033;-48
2021/07/05 08:48:29;;;;;;;14.05;8.57;;;15.90;95.90;;;;;;5011750;28;20454;-48
2021/07/05 08:50:56;;;;;;;14.20;9.65;;;15.90;95.90;;;;;;5012488;28;20405;-49
2021/07/05 08:53:25;;;;;;;22.52;9.90;;;15.90;95.90;;;;;;5017317;28;20450;-46
2021/07/05 08:55:53;;;;;;;17.65;10.57;;;15.80;96.00;;;;;;4994787;28;20510;-48
2021/07/05 08:58:19;;;;;;;18.80;10.75;;;15.90;96.10;;;;;;5018973;28;20128;-49
2021/07/05 09:00:45;;;;;;;16.90;10.75;;;15.90;96.10;;;;;;5010811;28;20042;-49
2021/07/05 09:03:11;;;;;;;18.80;10.90;;;15.90;96.10;;;;;;5019447;28;20054;-50
2021/07/05 09:05:37;;;;;;;20.13;10.82;;;15.90;96.10;;;;;;5014700;28;20119;-47
2021/07/05 09:08:11;;;;;;;19.77;12.05;;;15.90;96.20;;;;;;5020033;28;20482;-50
2021/07/05 09:10:48;;;;;;;22.33;12.18;;;16.00;96.30;;;;;;5017986;28;20037;-49
2021/07/05 09:13:17;;;;;;;23.13;12.82;;;16.00;96.10;;;;;;5018293;28;20052;-51
2021/07/05 09:15:48;;;;;;;20.05;12.80;;;16.10;96.00;;;;;;4999876;28;20041;-50
2021/07/05 09:18:31;;;;;;;21.45;13.38;;;16.10;96.20;;;;;;5014852;28;20054;-47
2021/07/05 09:21:24;;;;;;;22.10;13.15;;;16.10;96.10;;;;;;5015976;28;20050;-48
2021/07/05 09:23:58;;;;;;;22.15;14.25;;;16.20;96.10;;;;;;5013115;28;20049;-49
2021/07/05 09:26:37;;;;;;;21.33;13.20;;;16.20;96.20;;;;;;5015766;28;20528;-52
2021/07/05 09:29:25;;;;;;;23.88;14.70;;;16.30;96.20;;;;;;5016407;28;20534;-48
2021/07/05 09:31:55;;;;;;;23.98;14.25;;;16.30;96.20;;;;;;5012272;28;20046;-52
2021/07/05 09:34:27;;;;;;;23.30;14.88;;;16.40;95.90;;;;;;5009001;28;20038;-48
2021/07/05 09:36:56;;;;;;;23.55;14.48;;;16.50;95.80;;;;;;5019943;28;20129;-53
2021/07/05 09:39:24;;;;;;;24.42;14.30;;;16.50;95.50;;;;;;5007676;28;20056;-49
2021/07/05 09:41:55;;;;;;;22.00;15.07;;;16.60;95.30;;;;;;5030067;28;20042;-52
2021/07/05 09:44:25;;;;;;;23.80;14.98;;;16.60;94.90;;;;;;5020276;28;20399;-50
2021/07/05 09:46:55;;;;;;;25.67;15.32;;;16.50;94.80;;;;;;5027542;28;20438;-53
2021/07/05 09:49:41;;;;;;;27.30;17.27;;;16.60;95.00;;;;;;5017554;28;20438;-53
2021/07/05 09:52:25;;;;;;;25.60;16.05;;;16.50;95.00;;;;;;5009926;28;20053;-50
2021/07/05 09:54:58;;;;;;;23.98;16.83;;;16.50;94.80;;;;;;5014931;28;20045;-50
2021/07/05 09:57:40;;;;;;;23.90;16.77;;;16.50;95.10;;;;;;5018295;28;20096;-50
2021/07/05 10:00:15;;;;;;;26.52;16.92;;;16.50;95.10;;;;;;5016722;28;20038;-47
2021/07/05 10:03:01;;;;;;;24.13;17.45;;;16.60;95.10;;;;;;5017095;28;20050;-52
2021/07/05 10:05:35;;;;;;;23.50;16.70;;;16.70;95.10;;;;;;4999391;28;20108;-51
2021/07/05 10:08:12;;;;;;;22.63;18.60;;;16.90;95.10;;;;;;5016985;28;20046;-53
2021/07/05 10:10:43;;;;;;;21.20;15.98;;;17.10;95.00;;;;;;5017711;28;20034;-53
2021/07/05 10:13:15;;;;;;;24.20;16.38;;;17.30;94.80;;;;;;5014053;28;20041;-49
2021/07/05 10:15:41;;;;;;;21.67;15.93;;;17.40;94.40;;;;;;4995158;28;20458;-51
2021/07/05 10:18:07;;;;;;;20.98;16.73;;;17.50;94.20;;;;;;4995160;28;20049;-51
2021/07/05 10:20:36;;;;;;;21.83;15.50;;;17.60;93.90;;;;;;5013475;28;20121;-52
2021/07/05 10:23:15;;;;;;;22.30;16.65;;;17.70;93.70;;;;;;5012057;28;20519;-52
2021/07/05 10:25:44;;;;;;;22.77;14.55;;;17.90;93.80;;;;;;5006550;28;20514;-52
2021/07/05 10:28:15;;;;;;;21.17;14.30;;;18.00;93.00;;;;;;5004039;28;20065;-49
2021/07/05 10:30:42;;;;;;;19.35;14.43;;;18.00;92.60;;;;;;4995776;28;20113;-52
2021/07/05 10:33:10;;;;;;;18.10;13.80;;;18.00;92.70;;;;;;4978636;28;20316;-51
2021/07/05 10:35:39;;;;;;;15.60;13.27;;;18.10;92.20;;;;;;4996432;28;20438;-53
2021/07/05 10:38:08;;;;;;;18.58;13.77;;;18.10;91.80;;;;;;5009569;28;20038;-53
2021/07/05 10:40:39;;;;;;;17.63;13.93;;;18.10;92.00;;;;;;5012549;28;20042;-48
2021/07/05 10:43:06;;;;;;;18.75;13.02;;;18.00;92.20;;;;;;5010345;28;20107;-48
2021/07/05 10:45:44;;;;;;;19.75;13.55;;;18.20;92.10;;;;;;4979903;28;20069;-47
2021/07/05 10:48:13;;;;;;;19.77;13.77;;;18.20;92.40;;;;;;5010851;28;20049;-47
2021/07/05 10:50:43;;;;;;;19.05;12.93;;;18.40;92.00;;;;;;4997876;28;20547;-53
2021/07/05 10:53:10;;;;;;;17.15;12.65;;;18.50;92.10;;;;;;5008443;28;20054;-51
2021/07/05 10:55:48;;;;;;;17.30;11.27;;;18.80;91.40;;;;;;5004738;28;20442;-51
2021/07/05 10:58:25;;;;;;;18.58;11.57;;;19.00;91.00;;;;;;5011633;28;20042;-47
2021/07/05 11:00:53;;;;;;;15.40;10.00;;;19.20;90.60;;;;;;4992992;28;20509;-49
2021/07/05 11:03:40;;;;;;;13.93;9.40;;;19.40;89.50;;;;;;5009847;28;20037;-47
2021/07/05 11:06:10;;;;;;;14.85;9.43;;;19.50;88.00;;;;;;4993795;28;20414;-50
2021/07/05 11:08:44;;;;;;;14.90;9.50;;;19.50;85.10;;;;;;5011432;28;20074;-53
2021/07/05 11:11:24;;;;;;;11.90;8.30;;;19.40;86.50;;;;;;5011024;28;20033;-50
2021/07/05 11:14:08;;;;;;;13.23;8.02;;;19.40;86.30;;;;;;5007651;28;20064;-51
2021/07/05 11:16:53;;;;;;;11.90;6.72;;;19.40;86.80;;;;;;5009946;28;20046;-50
2021/07/05 11:19:42;;;;;;;11.48;7.63;;;19.40;84.90;;;;;;5009207;28;20117;-51
2021/07/05 11:22:21;;;;;;;12.85;7.68;;;19.40;85.60;;;;;;5011023;28;20041;-52
2021/07/05 11:24:50;;;;;;;12.90;7.93;;;19.40;86.20;;;;;;5010792;28;20077;-50
2021/07/05 11:27:32;;;;;;;11.93;7.13;;;19.40;86.10;;;;;;5019475;28;20392;-51
2021/07/05 11:30:18;;;;;;;15.85;7.15;;;19.40;84.30;;;;;;5002842;28;20038;-52
2021/07/05 11:32:49;;;;;;;14.60;7.70;;;19.40;82.70;;;;;;5000437;28;20050;-52
2021/07/05 11:35:41;;;;;;;9.35;6.32;;;19.40;82.90;;;;;;4996748;28;20039;-53
2021/07/05 11:38:24;;;;;;;15.65;7.78;;;19.40;82.90;;;;;;4999841;28;20100;-50
2021/07/05 11:41:24;;;;;;;15.10;7.78;;;19.60;81.60;;;;;;4992835;28;20089;-49
2021/07/05 11:43:57;;;;;;;12.60;6.57;;;19.60;82.70;;;;;;5005145;28;20042;-51
2021/07/05 11:46:47;;;;;;;13.15;6.70;;;19.50;83.20;;;;;;5002518;28;20038;-51
2021/07/05 11:49:26;;;;;;;11.60;6.32;;;19.50;80.00;;;;;;5009937;28;20490;-52
2021/07/05 11:51:56;;;;;;;9.57;7.10;;;19.50;81.50;;;;;;5012940;28;20050;-51
2021/07/05 11:54:36;;;;;;;11.18;7.07;;;19.60;82.60;;;;;;5013925;28;20060;-51
2021/07/05 11:57:05;;;;;;;9.57;6.35;;;19.60;83.70;;;;;;5018336;28;20411;-48
2021/07/05 11:59:33;;;;;;;13.73;6.75;;;19.60;82.40;;;;;;5014539;28;20038;-49
2021/07/05 12:02:02;;;;;;;9.07;5.60;;;19.60;81.70;;;;;;5016593;28;20053;-51
2021/07/05 12:04:38;;;;;;;10.43;6.53;;;19.60;81.40;;;;;;5018703;28;20065;-47
2021/07/05 12:07:06;;;;;;;9.55;5.90;;;19.70;81.10;;;;;;5009632;28;20037;-48
2021/07/05 12:09:33;;;;;;;9.65;6.47;;;19.70;81.20;;;;;;5023286;28;20053;-49
2021/07/05 12:12:13;;;;;;;9.82;6.35;;;19.70;81.40;;;;;;5017452;28;20111;-52
2021/07/05 12:14:40;;;;;;;12.43;6.43;;;19.70;80.80;;;;;;5023942;28;20525;-55
2021/07/05 12:17:07;;;;;;;10.45;6.55;;;19.70;79.50;;;;;;5014055;28;20454;-47
2021/07/05 12:19:34;;;;;;;11.20;6.50;;;19.70;79.50;;;;;;5021129;28;20041;-51
2021/07/05 12:22:07;;;;;;;13.82;7.00;;;19.80;79.90;;;;;;5020468;28;20037;-49
2021/07/05 12:24:38;;;;;;;11.35;6.35;;;20.00;80.60;;;;;;5003493;28;20050;-47
2021/07/05 12:27:07;;;;;;;13.23;7.73;;;20.20;79.70;;;;;;5016112;28;20099;-51
2021/07/05 12:29:44;;;;;;;14.48;7.50;;;20.30;79.80;;;;;;5009212;28;20382;-50
2021/07/05 12:32:13;;;;;;;11.20;6.30;;;20.40;79.60;;;;;;5010699;28;20042;-52
2021/07/05 12:34:57;;;;;;;13.65;7.28;;;20.50;78.70;;;;;;5005685;28;20498;-53
2021/07/05 12:37:35;;;;;;;10.63;6.72;;;20.60;75.10;;;;;;5025592;28;20039;-54
2021/07/05 12:40:04;;;;;;;12.80;7.07;;;20.80;77.80;;;;;;5023322;28;20132;-50